Flight Track Log - Related Links

Times and Time Zones

All times are in EDT time to prevent confusion due to time zone crossing. See the SWA407 flight status page for this flight to view local times or setup timezone preferences in your user account.

Time Position Orientation Groundspeed Altitude Reporting Facility
EDT Latitude Longitude Course Direction KTS MPH feet Rate Location/Type
Mon 01:16:08 PM 36.1000 -86.6833 162° South 153 176 1,300  Level Nashville TRACON
Mon 01:17:38 PM 36.0167 -86.6500 162° South 231 266 4,600 2,667 Climbing Nashville TRACON
Mon 01:19:44 PM 35.8797 -86.5678 154° Southeast 287 330 10,900 2,839 Climbing Memphis Center
Mon 01:20:44 PM 35.7967 -86.5128 152° Southeast 313 360 13,400 2,650 Climbing Memphis Center
Mon 01:21:44 PM 35.7053 -86.4583 154° Southeast 349 402 16,200 2,650 Climbing Memphis Center
Mon 01:22:44 PM 35.6064 -86.4350 169° South 364 419 18,700 6,568 Climbing Memphis Center
Mon 01:24:54 PM 35.3706 -86.3794 169° South 401 461 37,000 2,199 Climbing Atlanta Center
Mon 01:25:55 PM 35.2569 -86.3203 157° South 424 488 25,700 -4,711 Descending Atlanta Center
Mon 01:26:55 PM 35.1453 -86.2614 157° South 431 496 27,500 1,765 Climbing Atlanta Center
Mon 01:27:54 PM 35.0225 -86.2506 176° South 428 493 29,200 1,513 Climbing Atlanta Center
Mon 01:28:54 PM 34.8975 -86.2394 176° South 447 514 30,500 1,400 Climbing Atlanta Center
Mon 01:29:54 PM 34.7703 -86.2261 175° South 452 520 32,000 1,650 Climbing Atlanta Center
Mon 01:30:54 PM 34.6461 -86.1747 161° South 460 529 33,800 1,650 Climbing Atlanta Center
Mon 01:31:54 PM 34.5239 -86.1214 160° South 466 536 35,300 1,450 Climbing Atlanta Center
Mon 01:32:54 PM 34.4017 -86.0628 158° South 471 542 36,700 850 Climbing Atlanta Center
Mon 01:33:54 PM 34.2817 -86.0072 159° South 471 542 37,000 150 Climbing Atlanta Center
Mon 01:34:54 PM 34.1739 -85.9594 160° South 466 536 37,000  Level Atlanta Center
Mon 01:35:54 PM 34.0556 -85.9042 159° South 466 536 37,000  Level Atlanta Center
Mon 01:36:54 PM 33.9333 -85.8489 159° South 466 536 37,000  Level Atlanta Center
Mon 01:37:54 PM 33.8025 -85.7961 161° South 466 536 37,000  Level Atlanta Center
Mon 01:38:54 PM 33.6803 -85.7414 160° South 461 531 37,000  Level Atlanta Center
Mon 01:39:54 PM 33.5600 -85.6842 158° South 461 531 37,000  Level Atlanta Center
Mon 01:40:54 PM 33.4375 -85.6294 160° South 466 536 37,000  Level Atlanta Center
Mon 01:41:54 PM 33.3153 -85.5675 157° South 471 542 37,000  Level Atlanta Center
Mon 01:42:54 PM 33.1967 -85.5158 160° South 471 542 37,000  Level Atlanta Center
Mon 01:43:54 PM 33.0722 -85.4667 162° South 471 542 37,000  Level Atlanta Center
Mon 01:44:54 PM 32.9539 -85.4078 157° South 464 534 37,000  Level Atlanta Center
Mon 01:45:55 PM 32.8375 -85.3589 161° South 462 532 37,000  Level Atlanta Center
Mon 01:46:54 PM 32.7128 -85.3028 159° South 467 537 37,000  Level Atlanta Center
Mon 01:47:54 PM 32.5922 -85.2494 160° South 467 537 37,000  Level Atlanta Center
Mon 01:48:55 PM 32.4717 -85.1961 160° South 460 529 37,000  Level Atlanta Center
Mon 01:49:54 PM 32.3511 -85.1428 160° South 465 535 37,000  Level Atlanta Center
Mon 01:50:54 PM 32.2325 -85.0972 162° South 465 535 37,000  Level Atlanta Center
Mon 01:51:54 PM 32.1142 -85.0419 158° South 465 535 37,000  Level Atlanta Center
Mon 01:52:52 PM 32.0092 -84.9947 159° South 462 532 37,000  Level Jacksonville Center
Mon 01:53:52 PM 31.8744 -84.9378 160° South 468 539 37,000  Level Jacksonville Center
Mon 01:54:52 PM 31.7500 -84.8886 161° South 468 539 37,000  Level Jacksonville Center
Mon 01:55:52 PM 31.6278 -84.8322 159° South 468 539 37,000  Level Jacksonville Center
Mon 01:56:52 PM 31.5053 -84.7786 160° South 468 539 37,000  Level Jacksonville Center
Mon 01:57:52 PM 31.3803 -84.7689 176° South 445 512 37,000  Level Jacksonville Center
Mon 01:58:52 PM 31.2569 -84.7639 178° South 445 512 37,000  Level Jacksonville Center
Mon 01:59:52 PM 31.1364 -84.7397 170° South 445 512 37,000  Level Jacksonville Center
Mon 02:00:52 PM 31.0225 -84.6694 152° Southeast 445 512 37,000  Level Jacksonville Center
Mon 02:01:52 PM 30.9086 -84.5997 152° Southeast 445 512 37,000 -50 Level Jacksonville Center
Mon 02:02:52 PM 30.7989 -84.5250 150° Southeast 461 531 36,900  Descending Jacksonville Center
Mon 02:03:52 PM 30.6808 -84.4553 153° Southeast 468 539 37,000 50 Climbing Jacksonville Center
Mon 02:04:52 PM 30.5667 -84.3836 152° Southeast 468 539 37,000 -50 Level Jacksonville Center
Mon 02:05:52 PM 30.4569 -84.3094 150° Southeast 468 539 36,900 -50 Descending Jacksonville Center
Mon 02:06:52 PM 30.3408 -84.2333 150° Southeast 468 539 36,900  Level Jacksonville Center
Mon 02:07:52 PM 30.2414 -84.1692 151° Southeast 468 539 36,900 -450 Level Jacksonville Center
Mon 02:08:52 PM 30.1272 -84.0958 151° Southeast 462 532 36,000 -950 Descending Jacksonville Center
Mon 02:09:52 PM 30.0131 -84.0225 151° Southeast 467 537 35,000 -950 Descending Jacksonville Center
Mon 02:10:52 PM 29.9008 -83.9467 150° Southeast 467 537 34,100 -950 Descending Jacksonville Center
Mon 02:11:52 PM 29.7889 -83.8761 151° Southeast 467 537 33,100 -1,000 Descending Jacksonville Center
Mon 02:12:52 PM 29.6767 -83.8033 151° Southeast 467 537 32,100 -1,050 Descending Jacksonville Center
Mon 02:13:52 PM 29.5664 -83.7356 152° Southeast 456 525 31,000 -1,050 Descending Jacksonville Center
Mon 02:14:52 PM 29.4625 -83.6653 149° Southeast 446 513 30,000 -1,000 Descending Jacksonville Center
Mon 02:15:52 PM 29.3564 -83.5978 151° Southeast 441 507 29,000 -1,200 Descending Jacksonville Center
Mon 02:16:52 PM 29.2544 -83.5328 151° Southeast 435 501 27,600 -1,100 Descending Jacksonville Center
Mon 02:17:52 PM 29.1567 -83.4681 150° Southeast 423 487 26,800 -900 Descending Jacksonville Center
Mon 02:18:52 PM 29.0567 -83.4081 152° Southeast 410 472 25,800 -1,400 Descending Jacksonville Center
Mon 02:19:52 PM 28.9631 -83.3458 150° Southeast 410 472 24,000 -1,850 Descending Jacksonville Center
Mon 02:20:52 PM 28.8672 -83.2861 151° Southeast 400 460 22,100 -1,900 Descending Jacksonville Center
Mon 02:21:52 PM 28.7756 -83.2289 151° Southeast 389 448 20,200 -1,914 Descending Jacksonville Center
Mon 02:23:35 PM 28.6167 -83.1333 152° Southeast 361 415 16,900 -1,877 Descending Tampa TRACON
Mon 02:24:35 PM 28.5333 -83.0667 145° Southeast 354 407 15,100 -1,950 Descending Tampa TRACON
Mon 02:25:35 PM 28.4333 -83.0167 156° South 352 405 13,000 -1,950 Descending Tampa TRACON
Mon 02:26:35 PM 28.3500 -82.9667 152° Southeast 346 398 11,200 -1,526 Descending Tampa TRACON
Mon 02:27:29 PM 28.2833 -82.9167 147° Southeast 325 374 10,100 -1,200 Descending Tampa TRACON
Mon 02:28:35 PM 28.2667 -82.8167 101° East 277 319 8,800 -1,333 Descending Tampa TRACON
Mon 02:29:35 PM 28.2833 -82.7333 77° East 278 320 7,300 -1,474 Descending Tampa TRACON
Mon 02:30:29 PM 28.2833 -82.6667 90° East 268 308 6,000 -895 Descending Tampa TRACON
Mon 02:31:29 PM 28.2667 -82.5833 103° East 222 255 5,600 -800 Descending Tampa TRACON
Mon 02:32:29 PM 28.2333 -82.5333 127° Southeast 205 236 4,400 -950 Descending Tampa TRACON
Mon 02:33:29 PM 28.1833 -82.5167 164° South 187 215 3,700 -850 Descending Tampa TRACON
Mon 02:34:29 PM 28.1333 -82.5167 180° South 185 213 2,700 -950 Descending Tampa TRACON
Mon 02:35:29 PM 28.0833 -82.5333 196° South 180 207 1,800 -835 Descending Tampa TRACON
Mon 02:36:24 PM 28.0333 -82.5333 180° South 151 174 1,100 -764 Descending Tampa TRACON
Mon 02:38:00 PM 27.9755 -82.5332 161° South  Level Estimated
Mon 02:45:00 PM 27.9755 -82.5332 161° South  Level Estimated
Mon 02:46:00 PM 27.9755 -82.5332 161° South  Level Estimated

Login

Don't have an account? Register now (free) for customized features, flight alerts, and more!